sensor_id;sensor_type;location;lat;lon;timestamp;pressure;altitude;pressure_sealevel;temperature;humidity
18819;BME280;9537;45.594;9.294;2023-04-25T00:00:44;98821.88;;;16.43;61.66
18819;BME280;9537;45.594;9.294;2023-04-25T00:01:50;98830.69;;;16.44;61.41
18819;BME280;9537;45.594;9.294;2023-04-25T00:02:58;98825.81;;;16.41;61.30
18819;BME280;9537;45.594;9.294;2023-04-25T00:04:05;98836.25;;;16.42;61.41
18819;BME280;9537;45.594;9.294;2023-04-25T00:05:12;98835.22;;;16.43;61.32
18819;BME280;9537;45.594;9.294;2023-04-25T00:06:20;98833.13;;;16.46;61.21
18819;BME280;9537;45.594;9.294;2023-04-25T00:07:22;98832.88;;;16.47;61.45
18819;BME280;9537;45.594;9.294;2023-04-25T00:08:28;98829.28;;;16.41;61.86
18819;BME280;9537;45.594;9.294;2023-04-25T00:09:35;98831.94;;;16.41;62.08
18819;BME280;9537;45.594;9.294;2023-04-25T00:10:41;98830.09;;;16.42;62.06
18819;BME280;9537;45.594;9.294;2023-04-25T00:11:48;98834.28;;;16.38;62.45
18819;BME280;9537;45.594;9.294;2023-04-25T00:12:54;98830.00;;;16.37;62.16
18819;BME280;9537;45.594;9.294;2023-04-25T00:14:04;98828.34;;;16.36;62.00
18819;BME280;9537;45.594;9.294;2023-04-25T00:15:12;98832.06;;;16.35;62.17
18819;BME280;9537;45.594;9.294;2023-04-25T00:16:18;98839.00;;;16.36;62.04
18819;BME280;9537;45.594;9.294;2023-04-25T00:17:25;98833.69;;;16.36;62.21
18819;BME280;9537;45.594;9.294;2023-04-25T00:18:31;98833.94;;;16.34;62.19
18819;BME280;9537;45.594;9.294;2023-04-25T00:19:38;98833.34;;;16.32;62.33
18819;BME280;9537;45.594;9.294;2023-04-25T00:20:44;98834.38;;;16.31;62.45
18819;BME280;9537;45.594;9.294;2023-04-25T00:21:52;98833.00;;;16.29;62.60
18819;BME280;9537;45.594;9.294;2023-04-25T00:22:59;98831.13;;;16.29;62.37
18819;BME280;9537;45.594;9.294;2023-04-25T00:24:06;98830.78;;;16.26;62.40
18819;BME280;9537;45.594;9.294;2023-04-25T00:25:07;98828.81;;;16.21;62.56
18819;BME280;9537;45.594;9.294;2023-04-25T00:26:14;98829.59;;;16.21;62.45
18819;BME280;9537;45.594;9.294;2023-04-25T00:27:20;98832.53;;;16.20;62.42
18819;BME280;9537;45.594;9.294;2023-04-25T00:28:27;98824.75;;;16.18;62.78
18819;BME280;9537;45.594;9.294;2023-04-25T00:29:34;98827.66;;;16.17;62.71
18819;BME280;9537;45.594;9.294;2023-04-25T00:30:42;98835.06;;;16.15;63.03
18819;BME280;9537;45.594;9.294;2023-04-25T00:31:48;98834.47;;;16.13;63.11
18819;BME280;9537;45.594;9.294;2023-04-25T00:32:55;98832.59;;;16.13;63.04
18819;BME280;9537;45.594;9.294;2023-04-25T00:34:01;98831.19;;;16.11;63.08
18819;BME280;9537;45.594;9.294;2023-04-25T00:35:09;98832.50;;;16.08;63.04
18819;BME280;9537;45.594;9.294;2023-04-25T00:36:15;98821.25;;;16.06;63.33
18819;BME280;9537;45.594;9.294;2023-04-25T00:37:22;98826.78;;;16.05;63.22
18819;BME280;9537;45.594;9.294;2023-04-25T00:38:28;98821.94;;;16.02;63.32
18819;BME280;9537;45.594;9.294;2023-04-25T00:39:35;98819.25;;;16.02;63.37
18819;BME280;9537;45.594;9.294;2023-04-25T00:40:41;98821.38;;;15.99;63.54
18819;BME280;9537;45.594;9.294;2023-04-25T00:41:50;98820.78;;;15.97;63.63
18819;BME280;9537;45.594;9.294;2023-04-25T00:42:58;98824.69;;;15.95;63.50
18819;BME280;9537;45.594;9.294;2023-04-25T00:44:08;98824.56;;;15.90;63.76
18819;BME280;9537;45.594;9.294;2023-04-25T00:45:17;98821.09;;;15.89;63.91
18819;BME280;9537;45.594;9.294;2023-04-25T00:46:24;98825.81;;;15.87;63.84
18819;BME280;9537;45.594;9.294;2023-04-25T00:47:30;98819.00;;;15.80;64.12
18819;BME280;9537;45.594;9.294;2023-04-25T00:48:38;98825.47;;;15.84;63.95
18819;BME280;9537;45.594;9.294;2023-04-25T00:49:44;98818.53;;;15.83;64.22
18819;BME280;9537;45.594;9.294;2023-04-25T00:50:52;98819.00;;;15.80;64.50
18819;BME280;9537;45.594;9.294;2023-04-25T00:51:59;98825.19;;;15.73;64.98
18819;BME280;9537;45.594;9.294;2023-04-25T00:53:06;98823.81;;;15.71;65.15
18819;BME280;9537;45.594;9.294;2023-04-25T00:54:12;98824.03;;;15.69;65.46
18819;BME280;9537;45.594;9.294;2023-04-25T00:55:20;98826.06;;;15.67;65.51
18819;BME280;9537;45.594;9.294;2023-04-25T00:56:26;98826.97;;;15.61;66.03
18819;BME280;9537;45.594;9.294;2023-04-25T00:57:33;98827.22;;;15.60;65.58
18819;BME280;9537;45.594;9.294;2023-04-25T00:58:40;98824.78;;;15.58;65.71
18819;BME280;9537;45.594;9.294;2023-04-25T00:59:48;98825.81;;;15.57;65.77
18819;BME280;9537;45.594;9.294;2023-04-25T01:00:58;98824.41;;;15.54;65.74
18819;BME280;9537;45.594;9.294;2023-04-25T01:02:05;98824.63;;;15.53;65.72
18819;BME280;9537;45.594;9.294;2023-04-25T01:03:08;98825.44;;;15.53;66.13
18819;BME280;9537;45.594;9.294;2023-04-25T01:04:15;98823.81;;;15.52;66.14
18819;BME280;9537;45.594;9.294;2023-04-25T01:05:21;98814.88;;;15.47;66.31
18819;BME280;9537;45.594;9.294;2023-04-25T01:06:28;98822.41;;;15.50;66.06
18819;BME280;9537;45.594;9.294;2023-04-25T01:07:34;98826.72;;;15.51;66.00
18819;BME280;9537;45.594;9.294;2023-04-25T01:08:41;98820.81;;;15.49;65.88
18819;BME280;9537;45.594;9.294;2023-04-25T01:09:47;98821.25;;;15.46;65.30
18819;BME280;9537;45.594;9.294;2023-04-25T01:10:55;98823.13;;;15.45;65.61
18819;BME280;9537;45.594;9.294;2023-04-25T01:12:01;98816.59;;;15.41;65.60
18819;BME280;9537;45.594;9.294;2023-04-25T01:13:08;98822.38;;;15.38;66.05
18819;BME280;9537;45.594;9.294;2023-04-25T01:14:14;98820.75;;;15.37;66.47
18819;BME280;9537;45.594;9.294;2023-04-25T01:15:21;98813.78;;;15.36;66.42
18819;BME280;9537;45.594;9.294;2023-04-25T01:16:29;98813.44;;;15.32;66.10
18819;BME280;9537;45.594;9.294;2023-04-25T01:17:36;98807.06;;;15.33;66.32
18819;BME280;9537;45.594;9.294;2023-04-25T01:18:43;98809.16;;;15.31;66.15
18819;BME280;9537;45.594;9.294;2023-04-25T01:19:51;98812.28;;;15.28;66.29
18819;BME280;9537;45.594;9.294;2023-04-25T01:21:02;98805.91;;;15.29;66.57
18819;BME280;9537;45.594;9.294;2023-04-25T01:22:13;98809.97;;;15.32;66.55
18819;BME280;9537;45.594;9.294;2023-04-25T01:23:20;98804.66;;;15.32;66.25
18819;BME280;9537;45.594;9.294;2023-04-25T01:24:27;98810.41;;;15.29;66.18
18819;BME280;9537;45.594;9.294;2023-04-25T01:25:33;98804.50;;;15.27;66.55
18819;BME280;9537;45.594;9.294;2023-04-25T01:26:41;98806.34;;;15.26;66.33
18819;BME280;9537;45.594;9.294;2023-04-25T01:27:50;98813.97;;;15.23;66.27
18819;BME280;9537;45.594;9.294;2023-04-25T01:28:57;98813.97;;;15.23;66.41
18819;BME280;9537;45.594;9.294;2023-04-25T01:30:05;98814.44;;;15.20;66.29
18819;BME280;9537;45.594;9.294;2023-04-25T01:31:13;98809.56;;;15.17;67.01
18819;BME280;9537;45.594;9.294;2023-04-25T01:32:20;98806.91;;;15.17;66.90
18819;BME280;9537;45.594;9.294;2023-04-25T01:33:27;98807.91;;;15.16;66.74
18819;BME280;9537;45.594;9.294;2023-04-25T01:34:33;98802.84;;;15.14;66.96
18819;BME280;9537;45.594;9.294;2023-04-25T01:35:40;98807.56;;;15.12;67.24
18819;BME280;9537;45.594;9.294;2023-04-25T01:36:49;98805.78;;;15.06;67.48
18819;BME280;9537;45.594;9.294;2023-04-25T01:37:57;98808.81;;;15.09;67.62
18819;BME280;9537;45.594;9.294;2023-04-25T01:39:03;98811.25;;;15.11;66.79
18819;BME280;9537;45.594;9.294;2023-04-25T01:40:12;98812.88;;;15.12;66.75
18819;BME280;9537;45.594;9.294;2023-04-25T01:41:18;98809.97;;;15.14;66.41
18819;BME280;9537;45.594;9.294;2023-04-25T01:42:25;98809.09;;;15.20;66.40
18819;BME280;9537;45.594;9.294;2023-04-25T01:43:31;98814.78;;;15.23;66.14
18819;BME280;9537;45.594;9.294;2023-04-25T01:44:38;98810.06;;;15.25;65.88
18819;BME280;9537;45.594;9.294;2023-04-25T01:45:44;98809.47;;;15.23;65.77
18819;BME280;9537;45.594;9.294;2023-04-25T01:46:46;98811.31;;;15.23;66.40
18819;BME280;9537;45.594;9.294;2023-04-25T01:47:52;98809.09;;;15.20;66.76
18819;BME280;9537;45.594;9.294;2023-04-25T01:48:59;98804.34;;;15.22;66.73
18819;BME280;9537;45.594;9.294;2023-04-25T01:50:06;98803.34;;;15.23;66.88
18819;BME280;9537;45.594;9.294;2023-04-25T01:51:14;98805.75;;;15.24;66.34
18819;BME280;9537;45.594;9.294;2023-04-25T01:52:22;98806.44;;;15.20;66.14
18819;BME280;9537;45.594;9.294;2023-04-25T01:53:29;98802.53;;;15.22;66.10
18819;BME280;9537;45.594;9.294;2023-04-25T01:54:35;98802.53;;;15.22;65.95
18819;BME280;9537;45.594;9.294;2023-04-25T01:55:42;98802.53;;;15.22;65.88
18819;BME280;9537;45.594;9.294;2023-04-25T01:56:50;98798.69;;;15.18;66.10
18819;BME280;9537;45.594;9.294;2023-04-25T01:57:57;98795.56;;;15.21;65.87
18819;BME280;9537;45.594;9.294;2023-04-25T01:59:05;98803.34;;;15.23;65.76
18819;BME280;9537;45.594;9.294;2023-04-25T02:00:12;98808.88;;;15.21;65.86
18819;BME280;9537;45.594;9.294;2023-04-25T02:01:18;98797.28;;;15.16;66.13
18819;BME280;9537;45.594;9.294;2023-04-25T02:02:25;98802.38;;;15.17;66.22
18819;BME280;9537;45.594;9.294;2023-04-25T02:03:32;98803.41;;;15.16;66.27
18819;BME280;9537;45.594;9.294;2023-04-25T02:04:39;98799.72;;;15.17;65.85
18819;BME280;9537;45.594;9.294;2023-04-25T02:05:46;98804.00;;;15.18;65.53
18819;BME280;9537;45.594;9.294;2023-04-25T02:06:52;98797.28;;;15.16;65.38
18819;BME280;9537;45.594;9.294;2023-04-25T02:08:00;98803.41;;;15.16;65.14
18819;BME280;9537;45.594;9.294;2023-04-25T02:09:01;98797.88;;;15.18;64.80
18819;BME280;9537;45.594;9.294;2023-04-25T02:10:09;98797.28;;;15.16;64.86
18819;BME280;9537;45.594;9.294;2023-04-25T02:11:15;98799.13;;;15.15;64.97
18819;BME280;9537;45.594;9.294;2023-04-25T02:12:17;98795.22;;;15.18;64.98
18819;BME280;9537;45.594;9.294;2023-04-25T02:13:23;98793.16;;;15.20;64.71
18819;BME280;9537;45.594;9.294;2023-04-25T02:14:30;98788.63;;;15.20;64.52
18819;BME280;9537;45.594;9.294;2023-04-25T02:15:36;98788.63;;;15.20;64.03
18819;BME280;9537;45.594;9.294;2023-04-25T02:16:43;98788.63;;;15.20;63.73
18819;BME280;9537;45.594;9.294;2023-04-25T02:17:49;98790.94;;;15.17;64.32
18819;BME280;9537;45.594;9.294;2023-04-25T02:18:58;98790.94;;;15.17;65.11
18819;BME280;9537;45.594;9.294;2023-04-25T02:20:06;98787.44;;;15.16;65.37
18819;BME280;9537;45.594;9.294;2023-04-25T02:21:12;98789.28;;;15.16;65.15
18819;BME280;9537;45.594;9.294;2023-04-25T02:22:20;98793.00;;;15.15;65.20
18819;BME280;9537;45.594;9.294;2023-04-25T02:23:28;98790.69;;;15.18;65.09
18819;BME280;9537;45.594;9.294;2023-04-25T02:24:35;98793.16;;;15.20;65.37
18819;BME280;9537;45.594;9.294;2023-04-25T02:25:42;98788.41;;;15.22;65.00
18819;BME280;9537;45.594;9.294;2023-04-25T02:26:49;98783.31;;;15.20;65.36
18819;BME280;9537;45.594;9.294;2023-04-25T02:27:55;98791.50;;;15.19;65.51
18819;BME280;9537;45.594;9.294;2023-04-25T02:29:02;98796.25;;;15.17;66.08
18819;BME280;9537;45.594;9.294;2023-04-25T02:30:08;98793.66;;;15.10;66.27
18819;BME280;9537;45.594;9.294;2023-04-25T02:31:15;98785.13;;;15.08;67.18
18819;BME280;9537;45.594;9.294;2023-04-25T02:32:22;98783.91;;;15.04;67.71
18819;BME280;9537;45.594;9.294;2023-04-25T02:33:28;98789.47;;;15.02;67.76
18819;BME280;9537;45.594;9.294;2023-04-25T02:34:35;98779.50;;;14.98;67.82
18819;BME280;9537;45.594;9.294;2023-04-25T02:35:41;98783.63;;;14.94;67.92
18819;BME280;9537;45.594;9.294;2023-04-25T02:36:48;98788.22;;;14.86;67.41
18819;BME280;9537;45.594;9.294;2023-04-25T02:37:55;98786.81;;;14.84;67.68
18819;BME280;9537;45.594;9.294;2023-04-25T02:39:03;98785.19;;;14.83;67.49
18819;BME280;9537;45.594;9.294;2023-04-25T02:40:11;98787.84;;;14.83;67.42
18819;BME280;9537;45.594;9.294;2023-04-25T02:41:18;98788.66;;;14.83;67.17
18819;BME280;9537;45.594;9.294;2023-04-25T02:42:24;98789.69;;;14.82;67.42
18819;BME280;9537;45.594;9.294;2023-04-25T02:43:30;98786.44;;;14.80;68.03
18819;BME280;9537;45.594;9.294;2023-04-25T02:44:37;98791.75;;;14.80;68.43
18819;BME280;9537;45.594;9.294;2023-04-25T02:45:43;98795.88;;;14.76;69.09
18819;BME280;9537;45.594;9.294;2023-04-25T02:46:51;98795.66;;;14.78;68.57
18819;BME280;9537;45.594;9.294;2023-04-25T02:47:56;98780.97;;;14.75;69.06
18819;BME280;9537;45.594;9.294;2023-04-25T02:49:04;98784.22;;;14.77;68.57
18819;BME280;9537;45.594;9.294;2023-04-25T02:50:10;98786.88;;;14.77;68.26
18819;BME280;9537;45.594;9.294;2023-04-25T02:51:17;98775.22;;;14.78;68.02
18819;BME280;9537;45.594;9.294;2023-04-25T02:52:23;98786.66;;;14.79;67.29
18819;BME280;9537;45.594;9.294;2023-04-25T02:53:31;98777.25;;;14.76;67.51
18819;BME280;9537;45.594;9.294;2023-04-25T02:54:39;98786.44;;;14.80;67.28
18819;BME280;9537;45.594;9.294;2023-04-25T02:55:41;98782.97;;;14.80;67.27
18819;BME280;9537;45.594;9.294;2023-04-25T02:56:47;98784.22;;;14.77;67.40
18819;BME280;9537;45.594;9.294;2023-04-25T02:57:54;98786.44;;;14.80;67.82
18819;BME280;9537;45.594;9.294;2023-04-25T02:59:01;98789.09;;;14.80;67.88
18819;BME280;9537;45.594;9.294;2023-04-25T03:00:08;98788.28;;;14.80;67.62
18819;BME280;9537;45.594;9.294;2023-04-25T03:01:17;98794.84;;;14.77;68.19
18819;BME280;9537;45.594;9.294;2023-04-25T03:02:24;98793.22;;;14.76;68.29
18819;BME280;9537;45.594;9.294;2023-04-25T03:03:30;98795.31;;;14.74;68.61
18819;BME280;9537;45.594;9.294;2023-04-25T03:04:36;98796.31;;;14.73;68.09
18819;BME280;9537;45.594;9.294;2023-04-25T03:05:43;98803.13;;;14.69;68.17
18819;BME280;9537;45.594;9.294;2023-04-25T03:06:53;98800.09;;;14.66;68.61
18819;BME280;9537;45.594;9.294;2023-04-25T03:07:59;98802.59;;;14.60;68.47
18819;BME280;9537;45.594;9.294;2023-04-25T03:09:06;98805.69;;;14.57;68.52
18819;BME280;9537;45.594;9.294;2023-04-25T03:10:13;98806.50;;;14.58;68.81
18819;BME280;9537;45.594;9.294;2023-04-25T03:11:20;98804.03;;;14.56;69.53
18819;BME280;9537;45.594;9.294;2023-04-25T03:12:26;98801.38;;;14.56;69.52
18819;BME280;9537;45.594;9.294;2023-04-25T03:13:33;98801.38;;;14.56;69.67
18819;BME280;9537;45.594;9.294;2023-04-25T03:14:39;98796.31;;;14.55;69.36
18819;BME280;9537;45.594;9.294;2023-04-25T03:15:46;98794.91;;;14.52;69.17
18819;BME280;9537;45.594;9.294;2023-04-25T03:16:52;98796.50;;;14.53;69.08
18819;BME280;9537;45.594;9.294;2023-04-25T03:17:54;98792.16;;;14.59;69.39
18819;BME280;9537;45.594;9.294;2023-04-25T03:19:00;98797.28;;;14.60;68.95
18819;BME280;9537;45.594;9.294;2023-04-25T03:20:08;98793.56;;;14.61;68.57
18819;BME280;9537;45.594;9.294;2023-04-25T03:21:14;98790.72;;;14.63;68.35
18819;BME280;9537;45.594;9.294;2023-04-25T03:22:21;98798.25;;;14.66;68.13
18819;BME280;9537;45.594;9.294;2023-04-25T03:23:27;98804.38;;;14.67;68.13
18819;BME280;9537;45.594;9.294;2023-04-25T03:24:34;98805.97;;;14.68;68.31
18819;BME280;9537;45.594;9.294;2023-04-25T03:25:42;98809.69;;;14.67;68.21
18819;BME280;9537;45.594;9.294;2023-04-25T03:26:49;98813.38;;;14.66;68.41
18819;BME280;9537;45.594;9.294;2023-04-25T03:27:55;98805.84;;;14.62;68.42
18819;BME280;9537;45.594;9.294;2023-04-25T03:29:02;98807.66;;;14.62;68.81
18819;BME280;9537;45.594;9.294;2023-04-25T03:30:05;98815.50;;;14.57;69.25
18819;BME280;9537;45.594;9.294;2023-04-25T03:31:12;98803.69;;;14.53;69.42
18819;BME280;9537;45.594;9.294;2023-04-25T03:32:19;98808.59;;;14.49;69.20
18819;BME280;9537;45.594;9.294;2023-04-25T03:33:26;98807.19;;;14.47;69.01
18819;BME280;9537;45.594;9.294;2023-04-25T03:34:33;98800.69;;;14.42;68.73
18819;BME280;9537;45.594;9.294;2023-04-25T03:35:39;98797.19;;;14.42;68.90
18819;BME280;9537;45.594;9.294;2023-04-25T03:36:46;98799.66;;;14.43;69.22
18819;BME280;9537;45.594;9.294;2023-04-25T03:37:53;98797.44;;;14.40;69.35
18819;BME280;9537;45.594;9.294;2023-04-25T03:38:59;98796.41;;;14.41;68.97
18819;BME280;9537;45.594;9.294;2023-04-25T03:40:06;98792.94;;;14.41;68.90
18819;BME280;9537;45.594;9.294;2023-04-25T03:41:14;98790.28;;;14.41;69.13
18819;BME280;9537;45.594;9.294;2023-04-25T03:42:21;98790.28;;;14.41;69.59
18819;BME280;9537;45.594;9.294;2023-04-25T03:43:29;98794.53;;;14.42;69.24
18819;BME280;9537;45.594;9.294;2023-04-25T03:44:30;98790.28;;;14.41;69.18
18819;BME280;9537;45.594;9.294;2023-04-25T03:45:36;98785.75;;;14.41;68.80
18819;BME280;9537;45.594;9.294;2023-04-25T03:46:43;98789.03;;;14.43;68.64
18819;BME280;9537;45.594;9.294;2023-04-25T03:47:50;98791.88;;;14.42;69.21
18819;BME280;9537;45.594;9.294;2023-04-25T03:48:55;98794.97;;;14.39;69.00
18819;BME280;9537;45.594;9.294;2023-04-25T03:49:57;98787.41;;;14.42;69.11
18819;BME280;9537;45.594;9.294;2023-04-25T03:51:07;98790.06;;;14.42;68.83
18819;BME280;9537;45.594;9.294;2023-04-25T03:52:12;98791.31;;;14.40;69.18
18819;BME280;9537;45.594;9.294;2023-04-25T03:53:19;98775.56;;;14.38;69.04
18819;BME280;9537;45.594;9.294;2023-04-25T03:54:25;98782.94;;;14.36;68.89
18819;BME280;9537;45.594;9.294;2023-04-25T03:55:32;98779.72;;;14.34;68.95
18819;BME280;9537;45.594;9.294;2023-04-25T03:56:40;98776.69;;;14.31;68.85
18819;BME280;9537;45.594;9.294;2023-04-25T03:57:46;98782.00;;;14.31;68.93
18819;BME280;9537;45.594;9.294;2023-04-25T03:58:53;98779.56;;;14.29;69.23
18819;BME280;9537;45.594;9.294;2023-04-25T04:00:00;98783.00;;;14.30;69.17
18819;BME280;9537;45.594;9.294;2023-04-25T04:01:06;98778.50;;;14.30;69.06
18819;BME280;9537;45.594;9.294;2023-04-25T04:02:13;98779.19;;;14.26;69.44
18819;BME280;9537;45.594;9.294;2023-04-25T04:03:19;98786.75;;;14.22;69.40
18819;BME280;9537;45.594;9.294;2023-04-25T04:04:26;98779.00;;;14.20;69.67
18819;BME280;9537;45.594;9.294;2023-04-25T04:05:32;98780.06;;;14.19;69.38
18819;BME280;9537;45.594;9.294;2023-04-25T04:06:39;98784.75;;;14.17;69.50
18819;BME280;9537;45.594;9.294;2023-04-25T04:07:46;98771.91;;;14.14;69.62
18819;BME280;9537;45.594;9.294;2023-04-25T04:08:52;98783.19;;;14.10;69.99
18819;BME280;9537;45.594;9.294;2023-04-25T04:09:59;98782.00;;;14.06;69.99
18819;BME280;9537;45.594;9.294;2023-04-25T04:11:05;98788.75;;;14.02;70.14
18819;BME280;9537;45.594;9.294;2023-04-25T04:12:14;98781.22;;;13.98;70.25
18819;BME280;9537;45.594;9.294;2023-04-25T04:13:19;98780.66;;;13.96;70.13
18819;BME280;9537;45.594;9.294;2023-04-25T04:14:26;98777.81;;;13.91;69.94
18819;BME280;9537;45.594;9.294;2023-04-25T04:15:32;98784.75;;;13.92;70.06
18819;BME280;9537;45.594;9.294;2023-04-25T04:16:39;98777.66;;;13.86;69.87
18819;BME280;9537;45.594;9.294;2023-04-25T04:17:47;98781.38;;;13.79;70.40
18819;BME280;9537;45.594;9.294;2023-04-25T04:18:54;98778.16;;;13.70;70.12
18819;BME280;9537;45.594;9.294;2023-04-25T04:20:01;98771.66;;;13.66;70.65
18819;BME280;9537;45.594;9.294;2023-04-25T04:21:07;98782.72;;;13.63;71.01
18819;BME280;9537;45.594;9.294;2023-04-25T04:22:13;98783.72;;;13.62;71.42
18819;BME280;9537;45.594;9.294;2023-04-25T04:23:20;98785.78;;;13.60;72.00
18819;BME280;9537;45.594;9.294;2023-04-25T04:24:28;98788.03;;;13.56;72.38
18819;BME280;9537;45.594;9.294;2023-04-25T04:25:34;98796.22;;;13.55;72.64
18819;BME280;9537;45.594;9.294;2023-04-25T04:26:41;98792.97;;;13.52;72.63
18819;BME280;9537;45.594;9.294;2023-04-25T04:27:51;98797.47;;;13.52;72.54
18819;BME280;9537;45.594;9.294;2023-04-25T04:29:00;98791.34;;;13.51;72.57
18819;BME280;9537;45.594;9.294;2023-04-25T04:30:07;98794.19;;;13.50;72.60
18819;BME280;9537;45.594;9.294;2023-04-25T04:31:14;98793.63;;;13.48;72.78
18819;BME280;9537;45.594;9.294;2023-04-25T04:32:22;98801.34;;;13.49;72.57
18819;BME280;9537;45.594;9.294;2023-04-25T04:33:26;98797.25;;;13.54;72.34
18819;BME280;9537;45.594;9.294;2023-04-25T04:34:31;98806.84;;;13.55;71.73
18819;BME280;9537;45.594;9.294;2023-04-25T04:35:39;98797.25;;;13.54;71.76
18819;BME280;9537;45.594;9.294;2023-04-25T04:36:45;98800.50;;;13.56;71.26
18819;BME280;9537;45.594;9.294;2023-04-25T04:37:53;98801.09;;;13.58;70.70
18819;BME280;9537;45.594;9.294;2023-04-25T04:38:59;98799.25;;;13.58;70.53
18819;BME280;9537;45.594;9.294;2023-04-25T04:40:06;98798.28;;;13.52;70.62
18819;BME280;9537;45.594;9.294;2023-04-25T04:41:12;98804.38;;;13.53;70.14
18819;BME280;9537;45.594;9.294;2023-04-25T04:42:19;98799.91;;;13.54;70.58
18819;BME280;9537;45.594;9.294;2023-04-25T04:43:28;98802.97;;;13.50;70.26
18819;BME280;9537;45.594;9.294;2023-04-25T04:44:35;98804.81;;;13.50;70.58
18819;BME280;9537;45.594;9.294;2023-04-25T04:45:42;98803.81;;;13.51;70.51
18819;BME280;9537;45.594;9.294;2023-04-25T04:46:50;98804.38;;;13.53;70.32
18819;BME280;9537;45.594;9.294;2023-04-25T04:47:56;98803.81;;;13.51;70.10
18819;BME280;9537;45.594;9.294;2023-04-25T04:49:04;98801.97;;;13.51;70.09
18819;BME280;9537;45.594;9.294;2023-04-25T04:50:10;98806.28;;;13.46;70.61
18819;BME280;9537;45.594;9.294;2023-04-25T04:51:17;98806.69;;;13.43;70.55
18819;BME280;9537;45.594;9.294;2023-04-25T04:52:18;98805.91;;;13.36;71.11
18819;BME280;9537;45.594;9.294;2023-04-25T04:53:25;98810.41;;;13.35;70.89
18819;BME280;9537;45.594;9.294;2023-04-25T04:54:31;98812.03;;;13.36;70.50
18819;BME280;9537;45.594;9.294;2023-04-25T04:55:39;98805.91;;;13.36;70.69
18819;BME280;9537;45.594;9.294;2023-04-25T04:56:46;98807.97;;;13.34;70.76
18819;BME280;9537;45.594;9.294;2023-04-25T04:57:53;98806.75;;;13.29;71.05
18819;BME280;9537;45.594;9.294;2023-04-25T04:59:00;98808.19;;;13.32;71.34
18819;BME280;9537;45.594;9.294;2023-04-25T05:00:09;98810.63;;;13.27;71.31
18819;BME280;9537;45.594;9.294;2023-04-25T05:01:16;98806.38;;;13.26;71.25
18819;BME280;9537;45.594;9.294;2023-04-25T05:02:18;98804.09;;;13.23;71.56
18819;BME280;9537;45.594;9.294;2023-04-25T05:03:25;98798.00;;;13.22;71.66
18819;BME280;9537;45.594;9.294;2023-04-25T05:04:32;98806.38;;;13.26;71.66
18819;BME280;9537;45.594;9.294;2023-04-25T05:05:38;98803.06;;;13.24;71.50
18819;BME280;9537;45.594;9.294;2023-04-25T05:06:45;98804.72;;;13.25;71.28
18819;BME280;9537;45.594;9.294;2023-04-25T05:07:51;98801.28;;;13.18;71.44
18819;BME280;9537;45.594;9.294;2023-04-25T05:08:58;98794.75;;;13.20;71.90
18819;BME280;9537;45.594;9.294;2023-04-25T05:10:06;98800.66;;;13.16;72.04
18819;BME280;9537;45.594;9.294;2023-04-25T05:11:13;98800.06;;;13.14;71.72
18819;BME280;9537;45.594;9.294;2023-04-25T05:12:19;98801.69;;;13.15;72.15
18819;BME280;9537;45.594;9.294;2023-04-25T05:13:26;98802.72;;;13.14;72.07
18819;BME280;9537;45.594;9.294;2023-04-25T05:14:34;98800.50;;;13.11;72.45
18819;BME280;9537;45.594;9.294;2023-04-25T05:15:40;98796.81;;;13.12;72.51
18819;BME280;9537;45.594;9.294;2023-04-25T05:16:48;98801.06;;;13.13;72.28
18819;BME280;9537;45.594;9.294;2023-04-25T05:17:54;98793.53;;;13.10;72.69
18819;BME280;9537;45.594;9.294;2023-04-25T05:19:00;98800.69;;;13.09;72.90
18819;BME280;9537;45.594;9.294;2023-04-25T05:20:08;98801.72;;;13.08;72.96
18819;BME280;9537;45.594;9.294;2023-04-25T05:21:15;98801.31;;;13.04;73.33
18819;BME280;9537;45.594;9.294;2023-04-25T05:22:22;98803.97;;;13.04;73.35
18819;BME280;9537;45.594;9.294;2023-04-25T05:23:29;98803.38;;;13.02;73.51
18819;BME280;9537;45.594;9.294;2023-04-25T05:24:35;98799.69;;;13.03;73.87
18819;BME280;9537;45.594;9.294;2023-04-25T05:25:42;98812.94;;;13.03;74.17
18819;BME280;9537;45.594;9.294;2023-04-25T05:26:48;98810.28;;;13.03;74.12
18819;BME280;9537;45.594;9.294;2023-04-25T05:27:55;98812.94;;;13.03;74.46
18819;BME280;9537;45.594;9.294;2023-04-25T05:29:02;98814.56;;;13.04;74.46
18819;BME280;9537;45.594;9.294;2023-04-25T05:30:11;98812.13;;;13.03;74.31
18819;BME280;9537;45.594;9.294;2023-04-25T05:31:18;98815.41;;;13.05;74.97
18819;BME280;9537;45.594;9.294;2023-04-25T05:32:24;98811.72;;;13.06;74.88
18819;BME280;9537;45.594;9.294;2023-04-25T05:33:31;98818.03;;;13.12;74.89
18819;BME280;9537;45.594;9.294;2023-04-25T05:34:37;98814.56;;;13.11;74.56
18819;BME280;9537;45.594;9.294;2023-04-25T05:35:45;98818.81;;;13.12;74.87
18819;BME280;9537;45.594;9.294;2023-04-25T05:36:52;98824.13;;;13.12;75.42
18819;BME280;9537;45.594;9.294;2023-04-25T05:37:58;98824.53;;;13.16;75.27
18819;BME280;9537;45.594;9.294;2023-04-25T05:39:05;98830.66;;;13.16;74.98
18819;BME280;9537;45.594;9.294;2023-04-25T05:40:12;98826.75;;;13.19;74.75
18819;BME280;9537;45.594;9.294;2023-04-25T05:41:19;98827.38;;;13.21;74.83
18819;BME280;9537;45.594;9.294;2023-04-25T05:42:25;98827.97;;;13.23;74.46
18819;BME280;9537;45.594;9.294;2023-04-25T05:43:32;98832.66;;;13.27;74.22
18819;BME280;9537;45.594;9.294;2023-04-25T05:44:39;98829.19;;;13.27;74.51
18819;BME280;9537;45.594;9.294;2023-04-25T05:45:47;98832.47;;;13.29;74.55
18819;BME280;9537;45.594;9.294;2023-04-25T05:46:53;98831.44;;;13.30;74.76
18819;BME280;9537;45.594;9.294;2023-04-25T05:48:00;98828.59;;;13.32;74.50
18819;BME280;9537;45.594;9.294;2023-04-25T05:49:06;98826.53;;;13.34;74.13
18819;BME280;9537;45.594;9.294;2023-04-25T05:50:13;98832.44;;;13.36;73.49
18819;BME280;9537;45.594;9.294;2023-04-25T05:51:19;98822.44;;;13.38;73.72
18819;BME280;9537;45.594;9.294;2023-04-25T05:52:26;98831.81;;;13.40;73.14
18819;BME280;9537;45.594;9.294;2023-04-25T05:53:32;98826.69;;;13.45;72.59
18819;BME280;9537;45.594;9.294;2023-04-25T05:54:39;98827.06;;;13.49;71.77
18819;BME280;9537;45.594;9.294;2023-04-25T05:55:46;98827.44;;;13.52;71.60
18819;BME280;9537;45.594;9.294;2023-04-25T05:56:53;98830.50;;;13.56;71.64
18819;BME280;9537;45.594;9.294;2023-04-25T05:57:59;98826.19;;;13.62;71.10